createdAt,value
2018-01-18T00:00:14.127Z,96532.30
2018-01-18T00:00:45.790Z,96533.21
2018-01-18T00:01:17.419Z,96528.13
2018-01-18T00:01:49.050Z,96535.13
2018-01-18T00:02:20.673Z,96527.08
2018-01-18T00:02:52.298Z,96533.05
2018-01-18T00:03:23.962Z,96536.82
2018-01-18T00:03:55.587Z,96540.95
2018-01-18T00:04:27.214Z,96539.30
2018-01-18T00:04:58.838Z,96541.98
2018-01-18T00:05:30.506Z,96541.13
2018-01-18T00:06:02.126Z,96542.41
2018-01-18T00:06:33.745Z,96544.96
2018-01-18T00:07:05.374Z,96541.13
2018-01-18T00:07:36.998Z,96538.94
2018-01-18T00:08:08.670Z,96532.55
2018-01-18T00:08:40.290Z,96535.52
2018-01-18T00:09:11.908Z,96548.68
2018-01-18T00:09:43.530Z,96528.66
2018-01-18T00:10:15.149Z,96527.85
2018-01-18T00:10:46.770Z,96537.69
2018-01-18T00:11:18.393Z,96533.80
2018-01-18T00:11:50.013Z,96518.75
2018-01-18T00:12:21.634Z,96530.41
2018-01-18T00:12:53.253Z,96532.84
2018-01-18T00:13:24.921Z,96527.63
2018-01-18T00:13:56.548Z,96530.91
2018-01-18T00:14:28.170Z,96536.70
2018-01-18T00:14:59.794Z,96544.17
2018-01-18T00:15:31.420Z,96516.61
2018-01-18T00:16:03.070Z,96528.45
2018-01-18T00:16:34.694Z,96518.66
2018-01-18T00:17:06.314Z,96519.52
2018-01-18T00:17:37.942Z,96516.18
2018-01-18T00:18:09.561Z,96522.54
2018-01-18T00:18:41.226Z,96501.73
2018-01-18T00:19:12.921Z,96534.17
2018-01-18T00:19:44.602Z,96525.20
2018-01-18T00:20:16.225Z,96530.15
2018-01-18T00:20:47.876Z,96530.41
2018-01-18T00:21:19.502Z,96529.69
2018-01-18T00:21:51.122Z,96527.92
2018-01-18T00:22:22.750Z,96526.81
2018-01-18T00:22:54.642Z,96533.52
2018-01-18T00:23:26.273Z,96533.80
2018-01-18T00:23:57.934Z,96528.83
2018-01-18T00:24:29.566Z,96538.63
2018-01-18T00:25:01.186Z,96536.94
2018-01-18T00:25:32.814Z,96530.85
2018-01-18T00:26:04.478Z,96535.13
2018-01-18T00:26:36.146Z,96533.61
2018-01-18T00:27:07.773Z,96532.83
2018-01-18T00:27:39.402Z,96521.36
2018-01-18T00:28:11.025Z,96532.83
2018-01-18T00:28:42.645Z,96536.96
2018-01-18T00:29:14.294Z,96542.96
2018-01-18T00:29:45.921Z,96531.52
2018-01-18T00:30:17.546Z,96531.05
2018-01-18T00:30:49.229Z,96536.58
2018-01-18T00:31:20.850Z,96535.02
2018-01-18T00:31:52.474Z,96527.64
2018-01-18T00:32:24.101Z,96529.47
2018-01-18T00:32:55.725Z,96528.11
2018-01-18T00:33:27.346Z,96523.95
2018-01-18T00:33:58.979Z,96534.19
2018-01-18T00:34:30.606Z,96530.89
2018-01-18T00:35:02.236Z,96529.19
2018-01-18T00:35:33.867Z,96541.57
2018-01-18T00:36:05.494Z,96526.22
2018-01-18T00:36:37.118Z,96534.22
2018-01-18T00:37:08.746Z,96537.33
2018-01-18T00:37:40.369Z,96536.72
2018-01-18T00:38:11.990Z,96538.46
2018-01-18T00:38:43.614Z,96542.93
2018-01-18T00:39:15.237Z,96543.66
2018-01-18T00:39:46.865Z,96542.52
2018-01-18T00:40:18.485Z,96541.27
2018-01-18T00:40:50.110Z,96540.84
2018-01-18T00:41:21.778Z,96540.52
2018-01-18T00:41:53.405Z,96535.33
2018-01-18T00:42:25.025Z,96545.06
2018-01-18T00:42:56.653Z,96541.16
2018-01-18T00:43:28.273Z,96544.68
2018-01-18T00:43:59.934Z,96545.54
2018-01-18T00:44:32.606Z,96541.55
2018-01-18T00:45:04.230Z,96544.52
2018-01-18T00:45:35.862Z,96545.41
2018-01-18T00:46:07.491Z,96536.85
2018-01-18T00:46:39.113Z,96547.84
2018-01-18T00:47:10.751Z,96536.71
2018-01-18T00:47:42.376Z,96554.23
2018-01-18T00:48:14.005Z,96536.80
2018-01-18T00:48:45.642Z,96556.89
2018-01-18T00:49:17.322Z,96534.36
2018-01-18T00:49:48.950Z,96539.94
2018-01-18T00:50:20.574Z,96553.34
2018-01-18T00:50:52.197Z,96540.93
2018-01-18T00:51:23.827Z,96541.29
2018-01-18T00:51:55.454Z,96540.27
2018-01-18T00:52:27.082Z,96549.20
2018-01-18T00:52:58.705Z,96558.56
2018-01-18T00:53:30.334Z,96545.77
2018-01-18T00:54:02.870Z,96572.63
2018-01-18T00:54:34.550Z,96542.38
2018-01-18T00:55:06.202Z,96545.48
2018-01-18T00:55:37.839Z,96562.64
2018-01-18T00:56:09.530Z,96533.70
2018-01-18T00:56:41.185Z,96557.91
2018-01-18T00:57:13.721Z,96563.39
2018-01-18T00:57:45.407Z,96545.70
2018-01-18T00:58:17.149Z,96544.45
2018-01-18T00:58:48.810Z,96570.39
2018-01-18T00:59:20.512Z,96559.34
2018-01-18T00:59:52.154Z,96555.81
2018-01-18T01:00:23.796Z,96574.64
2018-01-18T01:00:55.443Z,96555.01
2018-01-18T01:01:27.082Z,96575.08
2018-01-18T01:01:58.725Z,96556.00
2018-01-18T01:02:30.376Z,96571.44
2018-01-18T01:03:02.031Z,96557.23
2018-01-18T01:03:33.667Z,96570.50
2018-01-18T01:04:05.334Z,96574.00
2018-01-18T01:04:37.008Z,96571.44
2018-01-18T01:05:08.634Z,96573.38
2018-01-18T01:05:40.262Z,96570.58
2018-01-18T01:06:11.881Z,96573.64
2018-01-18T01:06:43.502Z,96581.05
2018-01-18T01:07:15.126Z,96572.41
2018-01-18T01:07:46.746Z,96585.47
2018-01-18T01:08:18.367Z,96579.99
2018-01-18T01:08:49.990Z,96580.72
2018-01-18T01:09:21.614Z,96577.80
2018-01-18T01:09:53.273Z,96582.08
2018-01-18T01:10:24.893Z,96586.86
2018-01-18T01:10:56.514Z,96582.91
2018-01-18T01:11:28.185Z,96580.69
2018-01-18T01:11:59.806Z,96583.80
2018-01-18T01:12:31.434Z,96588.99
2018-01-18T01:13:03.057Z,96583.85
2018-01-18T01:13:34.678Z,96588.60
2018-01-18T01:14:06.297Z,96583.36
2018-01-18T01:14:37.934Z,96579.66
2018-01-18T01:15:09.594Z,96586.77
2018-01-18T01:15:41.223Z,96582.24
2018-01-18T01:16:12.854Z,96587.77
2018-01-18T01:16:44.523Z,96584.44
2018-01-18T01:17:16.150Z,96579.99
2018-01-18T01:17:47.782Z,96584.24
2018-01-18T01:18:19.446Z,96581.58
2018-01-18T01:18:51.078Z,96585.80
2018-01-18T01:19:22.706Z,96585.52
2018-01-18T01:19:54.375Z,96588.77
2018-01-18T01:20:26.007Z,96584.50
2018-01-18T01:20:57.634Z,96587.47
2018-01-18T01:21:29.262Z,96583.94
2018-01-18T01:22:00.894Z,96588.36
2018-01-18T01:22:32.523Z,96588.80
2018-01-18T01:23:04.158Z,96588.77
2018-01-18T01:23:35.792Z,96586.94
2018-01-18T01:24:07.414Z,96587.69
2018-01-18T01:24:39.042Z,96578.83
2018-01-18T01:25:10.706Z,96587.49
2018-01-18T01:25:42.334Z,96591.35
2018-01-18T01:26:13.963Z,96587.16
2018-01-18T01:26:45.629Z,96582.50
2018-01-18T01:27:17.252Z,96583.38
2018-01-18T01:27:48.886Z,96581.22
2018-01-18T01:28:20.520Z,96581.58
2018-01-18T01:28:52.163Z,96588.63
2018-01-18T01:29:23.818Z,96584.05
2018-01-18T01:29:55.454Z,96581.38
2018-01-18T01:30:27.078Z,96585.36
2018-01-18T01:30:58.763Z,96587.94
2018-01-18T01:31:30.398Z,96589.72
2018-01-18T01:32:02.062Z,96591.35
2018-01-18T01:32:33.694Z,96590.19
2018-01-18T01:33:05.350Z,96583.77
2018-01-18T01:33:36.976Z,96585.80
2018-01-18T01:34:08.606Z,96584.80
2018-01-18T01:34:40.238Z,96584.85
2018-01-18T01:35:11.861Z,96590.38
2018-01-18T01:35:43.481Z,96583.55
2018-01-18T01:36:15.141Z,96582.78
2018-01-18T01:36:46.810Z,96591.24
2018-01-18T01:37:18.429Z,96586.11
2018-01-18T01:37:50.049Z,96588.22
2018-01-18T01:38:21.674Z,96587.80
2018-01-18T01:38:53.302Z,96583.19
2018-01-18T01:39:24.939Z,96582.36
2018-01-18T01:39:56.570Z,96584.61
2018-01-18T01:40:28.196Z,96584.61
2018-01-18T01:40:59.822Z,96591.55
2018-01-18T01:41:31.454Z,96588.86
2018-01-18T01:42:03.136Z,96578.25
2018-01-18T01:42:34.762Z,96590.16
2018-01-18T01:43:06.382Z,96589.33
2018-01-18T01:43:38.006Z,96588.80
2018-01-18T01:44:09.634Z,96592.33
2018-01-18T01:44:41.253Z,96594.11
2018-01-18T01:45:12.882Z,96594.13
2018-01-18T01:45:44.518Z,96586.02
2018-01-18T01:46:16.137Z,96592.10
2018-01-18T01:46:47.765Z,96582.80
2018-01-18T01:47:19.433Z,96584.02
2018-01-18T01:47:51.053Z,96584.36
2018-01-18T01:48:22.677Z,96574.69
2018-01-18T01:48:54.298Z,96576.52
2018-01-18T01:49:25.926Z,96582.49
2018-01-18T01:49:57.554Z,96588.55
2018-01-18T01:50:29.186Z,96594.81
2018-01-18T01:51:00.805Z,96598.27
2018-01-18T01:51:32.425Z,96594.09
2018-01-18T01:52:04.046Z,96597.16
2018-01-18T01:52:35.669Z,96601.01
2018-01-18T01:53:07.293Z,96597.34
2018-01-18T01:53:38.926Z,96591.51
2018-01-18T01:54:10.553Z,96597.48
2018-01-18T01:54:42.178Z,96599.25
2018-01-18T01:55:13.805Z,96596.72
2018-01-18T01:55:45.435Z,96596.67
2018-01-18T01:56:17.061Z,96600.14
2018-01-18T01:56:48.677Z,96596.91
2018-01-18T01:57:20.301Z,96605.05
2018-01-18T01:57:51.926Z,96606.60
2018-01-18T01:58:23.545Z,96601.13
2018-01-18T01:58:55.174Z,96607.07
2018-01-18T01:59:26.793Z,96601.13
2018-01-18T01:59:58.434Z,96604.60
2018-01-18T02:00:30.100Z,96576.27
2018-01-18T02:01:01.805Z,96593.27
2018-01-18T02:01:33.454Z,96589.81
2018-01-18T02:02:05.142Z,96598.37
2018-01-18T02:02:36.767Z,96603.47
2018-01-18T02:03:08.436Z,96600.53
2018-01-18T02:03:40.062Z,96611.99
2018-01-18T02:04:11.689Z,96606.80
2018-01-18T02:04:43.318Z,96603.78
2018-01-18T02:05:14.942Z,96602.22
2018-01-18T02:05:46.566Z,96607.06
2018-01-18T02:06:18.202Z,96614.36
2018-01-18T02:06:49.857Z,96606.34
2018-01-18T02:07:21.486Z,96606.28
2018-01-18T02:07:53.173Z,96609.69
2018-01-18T02:08:24.793Z,96609.44
2018-01-18T02:08:56.435Z,96618.41
2018-01-18T02:09:28.066Z,96611.60
2018-01-18T02:09:59.721Z,96609.02
2018-01-18T02:10:31.355Z,96604.03
2018-01-18T02:11:02.973Z,96610.35
2018-01-18T02:11:34.602Z,96611.21
2018-01-18T02:12:06.226Z,96606.89
2018-01-18T02:12:37.849Z,96606.34
2018-01-18T02:13:09.522Z,96601.59
2018-01-18T02:13:41.142Z,96600.43
2018-01-18T02:14:12.809Z,96607.15
2018-01-18T02:14:44.438Z,96592.02
2018-01-18T02:15:16.067Z,96601.68
2018-01-18T02:15:51.528Z,96598.27
2018-01-18T02:16:24.010Z,96598.27
2018-01-18T02:16:55.682Z,96601.08
2018-01-18T02:17:27.314Z,96581.49
2018-01-18T02:17:58.936Z,96604.13
2018-01-18T02:18:30.607Z,96603.34
2018-01-18T02:19:02.230Z,96588.05
2018-01-18T02:19:33.849Z,96606.06
2018-01-18T02:20:05.509Z,96612.14
2018-01-18T02:20:37.133Z,96605.88
2018-01-18T02:21:08.758Z,96610.25
2018-01-18T02:21:40.390Z,96613.39
2018-01-18T02:22:12.013Z,96615.27
2018-01-18T02:22:43.634Z,96616.49
2018-01-18T02:23:15.253Z,96605.08
2018-01-18T02:23:46.873Z,96608.36
2018-01-18T02:24:18.498Z,96602.95
2018-01-18T02:24:50.161Z,96605.70
2018-01-18T02:25:21.786Z,96613.70
2018-01-18T02:25:53.466Z,96610.67
2018-01-18T02:26:25.091Z,96615.23
2018-01-18T02:26:56.715Z,96608.12
2018-01-18T02:27:28.338Z,96605.48
2018-01-18T02:27:59.957Z,96598.98
2018-01-18T02:28:31.586Z,96602.04
2018-01-18T02:29:03.225Z,96585.84
2018-01-18T02:29:34.857Z,96588.29
2018-01-18T02:30:06.495Z,96598.62
2018-01-18T02:30:38.158Z,96577.63
2018-01-18T02:31:09.842Z,96585.98
2018-01-18T02:31:41.465Z,96583.88
2018-01-18T02:32:13.086Z,96577.52
2018-01-18T02:32:44.751Z,96593.60
2018-01-18T02:33:16.438Z,96590.74
2018-01-18T02:33:48.104Z,96594.41
2018-01-18T02:34:23.532Z,96590.13
2018-01-18T02:34:55.172Z,96595.69
2018-01-18T02:35:26.834Z,96595.80
2018-01-18T02:35:58.475Z,96588.91
2018-01-18T02:36:30.243Z,96592.69
2018-01-18T02:37:01.877Z,96604.63
2018-01-18T02:37:33.514Z,96598.18
2018-01-18T02:38:05.164Z,96600.38
2018-01-18T02:38:36.794Z,96593.08
2018-01-18T02:39:08.427Z,96595.58
2018-01-18T02:39:40.059Z,96592.63
2018-01-18T02:40:11.689Z,96593.87
2018-01-18T02:40:43.318Z,96594.41
2018-01-18T02:41:14.977Z,96594.52
2018-01-18T02:41:46.598Z,96591.55
2018-01-18T02:42:18.231Z,96590.69
2018-01-18T02:42:49.867Z,96591.99
2018-01-18T02:43:21.494Z,96594.60
2018-01-18T02:43:53.123Z,96589.91
2018-01-18T02:44:24.785Z,96583.16
2018-01-18T02:44:56.415Z,96586.16
2018-01-18T02:45:28.043Z,96588.33
2018-01-18T02:45:59.669Z,96585.66
2018-01-18T02:46:31.302Z,96594.66
2018-01-18T02:47:02.931Z,96586.63
2018-01-18T02:47:34.561Z,96587.48
2018-01-18T02:48:06.229Z,96575.58
2018-01-18T02:48:37.858Z,96591.41
2018-01-18T02:49:09.485Z,96589.83
2018-01-18T02:49:41.136Z,96589.94
2018-01-18T02:50:12.762Z,96589.57
2018-01-18T02:50:44.398Z,96590.79
2018-01-18T02:51:16.021Z,96589.19
2018-01-18T02:51:47.642Z,96566.16
2018-01-18T02:52:19.270Z,96571.73
2018-01-18T02:52:50.938Z,96584.46
2018-01-18T02:53:22.562Z,96573.86
2018-01-18T02:53:54.191Z,96599.78
2018-01-18T02:54:25.830Z,96573.86
2018-01-18T02:54:57.462Z,96574.22
2018-01-18T02:55:29.094Z,96563.50
2018-01-18T02:56:01.779Z,96569.86
2018-01-18T02:56:33.415Z,96572.69
2018-01-18T02:57:05.062Z,96565.34
2018-01-18T02:57:36.735Z,96569.61
2018-01-18T02:58:09.020Z,96569.61
2018-01-18T02:58:40.654Z,96568.20
2018-01-18T02:59:12.290Z,96579.14
2018-01-18T02:59:43.956Z,96575.72
2018-01-18T03:00:15.592Z,96580.83
2018-01-18T03:00:47.222Z,96578.36
2018-01-18T03:01:18.847Z,96579.77
2018-01-18T03:01:50.522Z,96579.03
2018-01-18T03:02:22.151Z,96571.83
2018-01-18T03:02:53.820Z,96579.49
2018-01-18T03:03:25.450Z,96579.52
2018-01-18T03:03:57.082Z,96580.44
2018-01-18T03:04:28.714Z,96572.41
2018-01-18T03:05:00.349Z,96586.52
2018-01-18T03:05:31.974Z,96579.63
2018-01-18T03:06:03.649Z,96582.16
2018-01-18T03:06:35.279Z,96581.41
2018-01-18T03:07:06.906Z,96436.34
2018-01-18T03:07:38.542Z,96580.83
2018-01-18T03:08:10.210Z,96580.32
2018-01-18T03:08:41.852Z,96577.73
2018-01-18T03:09:13.518Z,96582.94
2018-01-18T03:09:45.146Z,96582.94
2018-01-18T03:10:16.774Z,96583.43
2018-01-18T03:10:48.403Z,96582.44
2018-01-18T03:11:20.026Z,96582.94
2018-01-18T03:11:51.695Z,96579.10
2018-01-18T03:12:23.322Z,96578.24
2018-01-18T03:12:54.989Z,96572.63
2018-01-18T03:13:26.660Z,96584.10
2018-01-18T03:13:58.294Z,96584.70
2018-01-18T03:14:29.922Z,96590.28
2018-01-18T03:15:01.595Z,96583.09
2018-01-18T03:15:33.224Z,96585.76
2018-01-18T03:16:04.971Z,96584.45
2018-01-18T03:16:36.643Z,96575.48
2018-01-18T03:17:08.340Z,96580.67
2018-01-18T03:17:40.005Z,96598.03
2018-01-18T03:18:11.648Z,96563.34
2018-01-18T03:18:43.302Z,96586.48
2018-01-18T03:19:14.947Z,96580.95
2018-01-18T03:19:46.634Z,96574.06
2018-01-18T03:20:18.297Z,96583.84
2018-01-18T03:20:49.934Z,96591.51
2018-01-18T03:21:21.566Z,96592.31
2018-01-18T03:21:53.218Z,96591.98
2018-01-18T03:22:24.854Z,96588.18
2018-01-18T03:22:56.491Z,96603.86
2018-01-18T03:23:28.134Z,96592.37
2018-01-18T03:23:59.868Z,96584.39
2018-01-18T03:24:31.587Z,96575.81
2018-01-18T03:25:03.251Z,96575.53
2018-01-18T03:25:34.918Z,96560.09
2018-01-18T03:26:06.579Z,96584.04
2018-01-18T03:26:38.254Z,96584.81
2018-01-18T03:27:09.915Z,96577.51
2018-01-18T03:27:41.546Z,96574.42
2018-01-18T03:28:13.207Z,96581.93
2018-01-18T03:28:44.880Z,96589.73
2018-01-18T03:29:16.586Z,96583.27
2018-01-18T03:29:48.222Z,96580.24
2018-01-18T03:30:19.877Z,96573.88
2018-01-18T03:30:51.523Z,96579.88
2018-01-18T03:31:23.160Z,96562.52
2018-01-18T03:31:54.814Z,96586.77
2018-01-18T03:32:26.456Z,96594.87
2018-01-18T03:32:58.089Z,96573.14
2018-01-18T03:33:29.735Z,96577.02
2018-01-18T03:34:01.380Z,96571.77
2018-01-18T03:34:33.091Z,96586.27
2018-01-18T03:35:04.767Z,96570.83
2018-01-18T03:35:36.432Z,96577.05
2018-01-18T03:36:08.096Z,96573.77
2018-01-18T03:44:04.782Z,96550.17
2018-01-18T03:44:36.492Z,96548.66
2018-01-18T03:45:08.135Z,96557.42
2018-01-18T03:45:39.794Z,96549.27
2018-01-18T03:46:11.442Z,96565.48
2018-01-18T03:46:43.121Z,96535.47
2018-01-18T03:47:14.812Z,96562.42
2018-01-18T03:47:46.452Z,96556.45
2018-01-18T03:48:18.078Z,96547.56
2018-01-18T03:48:49.714Z,96552.38
2018-01-18T03:49:21.347Z,96563.64
2018-01-18T03:49:52.973Z,96547.95
2018-01-18T03:50:24.611Z,96567.28
2018-01-18T03:50:56.251Z,96570.14
2018-01-18T03:51:27.882Z,96568.08
2018-01-18T03:51:59.542Z,96568.14
2018-01-18T03:52:31.228Z,96555.87
2018-01-18T03:53:02.959Z,96551.40
2018-01-18T03:53:34.781Z,96570.14
2018-01-18T03:54:06.442Z,96576.08
2018-01-18T03:54:38.162Z,96563.81
2018-01-18T03:55:09.876Z,96550.13
2018-01-18T03:55:41.522Z,96535.44
2018-01-18T03:56:13.170Z,96563.86
2018-01-18T03:56:44.803Z,96537.47
2018-01-18T03:57:16.434Z,96558.33
2018-01-18T03:57:48.065Z,96552.40
2018-01-18T03:58:19.746Z,96544.84
2018-01-18T03:58:51.374Z,96559.86
2018-01-18T03:59:22.995Z,96557.95
2018-01-18T03:59:54.622Z,96562.17
2018-01-18T04:00:26.482Z,96557.59
2018-01-18T04:00:58.195Z,96557.11
2018-01-18T04:01:29.844Z,96552.17
2018-01-18T04:02:01.483Z,96541.48
2018-01-18T04:02:33.166Z,96549.03
2018-01-18T04:03:04.810Z,96545.63
2018-01-18T04:03:36.607Z,96552.75
2018-01-18T04:04:08.247Z,96548.62
2018-01-18T04:04:39.899Z,96553.70
2018-01-18T04:05:11.535Z,96549.56
2018-01-18T04:05:43.169Z,96555.73
2018-01-18T04:06:14.798Z,96552.70
2018-01-18T04:06:46.426Z,96554.84
2018-01-18T04:07:18.059Z,96556.92
2018-01-18T04:07:49.873Z,96558.78
2018-01-18T04:08:22.268Z,96557.95
2018-01-18T04:08:53.953Z,96564.45
2018-01-18T04:09:25.578Z,96554.67
2018-01-18T04:09:57.205Z,96554.98
2018-01-18T04:10:28.830Z,96551.59
2018-01-18T04:11:00.458Z,96557.12
2018-01-18T04:11:32.082Z,96550.40
2018-01-18T04:12:03.714Z,96551.28
2018-01-18T04:12:35.342Z,96551.40
2018-01-18T04:13:06.970Z,96552.70
2018-01-18T04:13:38.599Z,96550.63
2018-01-18T04:14:10.271Z,96546.02
2018-01-18T04:14:41.922Z,96548.15
2018-01-18T04:15:13.550Z,96551.18
2018-01-18T04:15:45.190Z,96539.63
2018-01-18T04:16:16.815Z,96545.29
2018-01-18T04:16:48.446Z,96546.32
2018-01-18T04:17:20.075Z,96542.88
2018-01-18T04:17:51.706Z,96546.66
2018-01-18T04:18:23.366Z,96546.40
2018-01-18T04:18:55.033Z,96543.63
2018-01-18T04:19:26.667Z,96539.94
2018-01-18T04:19:58.289Z,96535.94
2018-01-18T04:20:29.914Z,96536.05
2018-01-18T04:21:01.573Z,96541.80
2018-01-18T04:21:33.197Z,96536.47
2018-01-18T04:22:04.850Z,96536.17
2018-01-18T04:22:36.529Z,96508.56
2018-01-18T04:23:08.166Z,96533.19
2018-01-18T04:23:39.838Z,96522.92
2018-01-18T04:24:11.533Z,96524.77
2018-01-18T04:24:43.203Z,96515.09
2018-01-18T04:25:14.854Z,96529.61
2018-01-18T04:25:46.477Z,96530.96
2018-01-18T04:26:19.776Z,96527.75
2018-01-18T04:26:51.430Z,96529.85
2018-01-18T04:27:23.435Z,96525.05
2018-01-18T04:27:55.062Z,96531.13
2018-01-18T04:28:26.874Z,96531.91
2018-01-18T04:29:00.597Z,96525.61
2018-01-18T04:29:32.804Z,96512.72
2018-01-18T04:30:04.451Z,96526.89
2018-01-18T04:30:36.094Z,96510.70
2018-01-18T04:31:08.499Z,96523.61
2018-01-18T04:31:40.142Z,96523.66
2018-01-18T04:32:11.778Z,96525.06
2018-01-18T04:32:43.441Z,96520.81
2018-01-18T04:33:18.323Z,96523.67
2018-01-18T04:33:49.998Z,96507.52
2018-01-18T04:34:21.630Z,96522.53
2018-01-18T04:34:53.272Z,96526.78
2018-01-18T04:35:24.918Z,96521.12
2018-01-18T04:35:56.551Z,96522.66
2018-01-18T04:36:28.183Z,96518.75
2018-01-18T04:36:59.816Z,96519.13
2018-01-18T04:37:31.486Z,96511.81
2018-01-18T04:38:03.123Z,96509.18
2018-01-18T04:38:34.758Z,96511.44
2018-01-18T04:39:06.395Z,96511.66
2018-01-18T04:39:38.071Z,96483.02
2018-01-18T04:40:09.711Z,96506.78
2018-01-18T04:40:41.351Z,96505.14
2018-01-18T04:41:12.987Z,96516.86
2018-01-18T04:41:44.642Z,96504.39
2018-01-18T04:42:16.285Z,96506.51
2018-01-18T04:42:47.962Z,96511.25
2018-01-18T04:43:19.632Z,96497.54
2018-01-18T04:43:51.271Z,96495.93
2018-01-18T04:44:22.948Z,96511.25
2018-01-18T04:44:54.583Z,96509.92
2018-01-18T04:45:26.235Z,96511.70
2018-01-18T04:45:57.858Z,96512.86
2018-01-18T04:46:29.487Z,96508.59
2018-01-18T04:47:01.110Z,96508.56
2018-01-18T04:47:32.734Z,96509.36
2018-01-18T04:48:04.362Z,96507.53
2018-01-18T04:48:36.250Z,96508.34
2018-01-18T04:49:07.879Z,96512.42
2018-01-18T04:49:39.518Z,96507.70
2018-01-18T04:50:11.154Z,96506.59
2018-01-18T04:50:42.779Z,96506.57
2018-01-18T04:51:14.406Z,96504.44
2018-01-18T04:51:46.035Z,96506.32
2018-01-18T04:52:17.666Z,96507.81
2018-01-18T04:52:50.407Z,96504.91
2018-01-18T04:53:22.051Z,96503.23
2018-01-18T04:53:53.734Z,96507.20
2018-01-18T04:54:25.367Z,96503.73
2018-01-18T04:54:57.004Z,96505.98
2018-01-18T04:55:28.656Z,96504.66
2018-01-18T04:56:00.291Z,96501.98
2018-01-18T04:56:31.947Z,96505.73
2018-01-18T04:57:03.589Z,96499.92
2018-01-18T04:57:35.235Z,96499.83
2018-01-18T04:58:06.875Z,96494.11
2018-01-18T04:58:38.583Z,96500.97
2018-01-18T04:59:10.222Z,96498.69
2018-01-18T04:59:41.866Z,96497.85
2018-01-18T05:00:13.519Z,96500.27
2018-01-18T05:00:45.152Z,96498.75
2018-01-18T05:01:16.794Z,96501.84
2018-01-18T05:01:48.483Z,96493.56
2018-01-18T05:02:20.177Z,96498.47
2018-01-18T05:02:51.802Z,96495.47
2018-01-18T05:03:23.430Z,96490.53
2018-01-18T05:03:55.058Z,96484.31
2018-01-18T05:04:27.633Z,96500.97
2018-01-18T05:04:59.261Z,96494.91
2018-01-18T05:05:31.211Z,96487.39
2018-01-18T05:06:02.846Z,96490.55
2018-01-18T05:06:36.462Z,96476.84
2018-01-18T05:07:08.151Z,96489.36
2018-01-18T05:07:39.802Z,96488.02
2018-01-18T05:08:11.425Z,96489.66
2018-01-18T05:08:43.062Z,96488.64
2018-01-18T05:09:14.693Z,96495.89
2018-01-18T05:09:46.314Z,96490.13
2018-01-18T05:10:17.994Z,96475.30
2018-01-18T05:10:49.621Z,96491.44
2018-01-18T05:11:21.290Z,96491.95
2018-01-18T05:11:53.000Z,96487.60
2018-01-18T05:12:25.270Z,96487.98
2018-01-18T05:12:56.918Z,96491.30
2018-01-18T05:13:28.596Z,96487.58
2018-01-18T05:14:00.248Z,96490.07
2018-01-18T05:14:32.755Z,96485.61
2018-01-18T05:15:04.386Z,96483.05
2018-01-18T05:15:36.047Z,96484.33
2018-01-18T05:16:07.673Z,96486.50
2018-01-18T05:16:39.307Z,96477.08
2018-01-18T05:17:10.970Z,96481.09
2018-01-18T05:17:42.594Z,96482.57
2018-01-18T05:18:14.262Z,96481.44
2018-01-18T05:18:45.933Z,96485.42
2018-01-18T05:19:17.558Z,96480.81
2018-01-18T05:19:49.334Z,96482.77
2018-01-18T05:20:20.962Z,96482.97
2018-01-18T05:20:52.621Z,96484.92
2018-01-18T05:21:24.286Z,96484.98
2018-01-18T05:21:55.920Z,96485.03
2018-01-18T05:22:27.546Z,96483.98
2018-01-18T05:22:59.165Z,96479.35
2018-01-18T05:23:30.792Z,96479.02
2018-01-18T05:24:02.422Z,96481.58
2018-01-18T05:24:34.053Z,96483.80
2018-01-18T05:25:05.726Z,96480.53
2018-01-18T05:25:37.354Z,96478.47
2018-01-18T05:26:08.986Z,96483.22
2018-01-18T05:26:40.662Z,96478.67
2018-01-18T05:27:12.286Z,96476.17
2018-01-18T05:27:43.916Z,96471.54
2018-01-18T05:28:15.544Z,96474.98
2018-01-18T05:28:47.181Z,96473.23
2018-01-18T05:29:18.801Z,96478.28
2018-01-18T05:29:50.422Z,96482.17
2018-01-18T05:30:22.090Z,96473.17
2018-01-18T05:30:53.730Z,96470.71
2018-01-18T05:31:25.370Z,96471.98
2018-01-18T05:31:57.008Z,96470.02
2018-01-18T05:32:28.671Z,96475.54
2018-01-18T05:33:00.302Z,96464.16
2018-01-18T05:33:31.926Z,96473.63
2018-01-18T05:34:03.553Z,96473.69
2018-01-18T05:34:35.176Z,96466.88
2018-01-18T05:35:06.802Z,96476.27
2018-01-18T05:35:38.465Z,96472.10
2018-01-18T05:36:10.086Z,96474.23
2018-01-18T05:36:41.709Z,96471.36
2018-01-18T05:37:13.374Z,96473.55
2018-01-18T05:37:45.008Z,96464.64
2018-01-18T05:38:16.638Z,96471.91
2018-01-18T05:38:48.265Z,96471.93
2018-01-18T05:39:19.885Z,96467.77
2018-01-18T05:39:51.513Z,96470.83
2018-01-18T05:40:23.137Z,96465.80
2018-01-18T05:40:54.762Z,96470.55
2018-01-18T05:41:26.389Z,96462.86
2018-01-18T05:41:58.053Z,96465.50
2018-01-18T05:42:29.686Z,96465.14
2018-01-18T05:43:01.314Z,96462.06
2018-01-18T05:43:32.943Z,96464.22
2018-01-18T05:44:04.578Z,96460.03
2018-01-18T05:44:36.210Z,96461.34
2018-01-18T05:45:07.837Z,96465.27
2018-01-18T05:45:39.462Z,96460.17
2018-01-18T05:46:11.094Z,96466.00
2018-01-18T05:46:42.727Z,96461.75
2018-01-18T05:47:14.409Z,96460.86
2018-01-18T05:47:46.029Z,96462.94
2018-01-18T05:48:17.657Z,96461.75
2018-01-18T05:48:49.287Z,96461.78
2018-01-18T05:49:20.910Z,96455.90
2018-01-18T05:49:52.530Z,96461.42
2018-01-18T05:50:24.150Z,96464.30
2018-01-18T05:50:55.778Z,96454.52
2018-01-18T05:51:27.401Z,96458.78
2018-01-18T05:51:59.032Z,96461.31
2018-01-18T05:52:30.703Z,96459.17
2018-01-18T05:53:02.331Z,96458.31
2018-01-18T05:53:36.141Z,96454.81
2018-01-18T05:54:07.765Z,96460.25
2018-01-18T05:54:39.402Z,96460.64
2018-01-18T05:55:11.035Z,96451.63
2018-01-18T05:55:42.750Z,96459.67
2018-01-18T05:56:14.372Z,96461.72
2018-01-18T05:56:46.019Z,96460.30
2018-01-18T05:57:17.641Z,96451.04
2018-01-18T05:57:49.265Z,96456.06
2018-01-18T05:58:20.886Z,96453.91
2018-01-18T05:58:52.553Z,96452.66
2018-01-18T05:59:24.222Z,96454.73
2018-01-18T05:59:55.850Z,96449.42
2018-01-18T06:00:27.473Z,96449.81
2018-01-18T06:00:59.098Z,96447.59
2018-01-18T06:01:30.730Z,96451.11
2018-01-18T06:02:02.350Z,96445.83
2018-01-18T06:02:33.974Z,96430.74
2018-01-18T06:03:05.597Z,96447.33
2018-01-18T06:03:37.222Z,96441.24
2018-01-18T06:04:08.845Z,96442.94
2018-01-18T06:04:40.523Z,96439.82
2018-01-18T06:05:12.154Z,96445.67
2018-01-18T06:05:43.782Z,96442.80
2018-01-18T06:06:15.405Z,96437.69
2018-01-18T06:06:47.038Z,96431.86
2018-01-18T06:07:18.661Z,96438.84
2018-01-18T06:07:50.332Z,96439.50
2018-01-18T06:08:21.942Z,96432.50
2018-01-18T06:08:53.565Z,96434.31
2018-01-18T06:09:25.184Z,96441.44
2018-01-18T06:09:56.938Z,96440.48
2018-01-18T06:10:28.566Z,96440.02
2018-01-18T06:11:00.194Z,96439.39
2018-01-18T06:11:31.817Z,96439.31
2018-01-18T06:12:03.447Z,96433.22
2018-01-18T06:12:35.069Z,96441.92
2018-01-18T06:13:06.694Z,96438.36
2018-01-18T06:13:38.325Z,96433.30
2018-01-18T06:14:09.955Z,96432.20
2018-01-18T06:14:41.578Z,96434.67
2018-01-18T06:15:13.250Z,96430.72
2018-01-18T06:15:44.876Z,96431.14
2018-01-18T06:16:16.505Z,96435.71
2018-01-18T06:16:48.136Z,96431.58
2018-01-18T06:17:19.753Z,96434.02
2018-01-18T06:17:51.421Z,96439.13
2018-01-18T06:18:23.050Z,96428.85
2018-01-18T06:18:54.674Z,96435.98
2018-01-18T06:19:26.294Z,96428.91